createdAt,value
2018-11-27T00:00:40.322Z,5.76
2018-11-27T00:01:40.292Z,5.79
2018-11-27T00:02:40.304Z,5.69
2018-11-27T00:03:40.257Z,5.70
2018-11-27T00:04:40.253Z,5.62
2018-11-27T00:05:40.203Z,5.69
2018-11-27T00:06:40.160Z,5.70
2018-11-27T00:07:40.137Z,5.67
2018-11-27T00:08:40.121Z,5.70
2018-11-27T00:09:40.102Z,5.69
2018-11-27T00:10:40.063Z,5.65
2018-11-27T00:11:40.039Z,5.62
2018-11-27T00:12:40.023Z,5.62
2018-11-27T00:13:39.989Z,5.72
2018-11-27T00:14:39.963Z,5.67
2018-11-27T00:15:39.950Z,5.70
2018-11-27T00:16:39.913Z,5.65
2018-11-27T00:17:39.888Z,5.62
2018-11-27T00:18:39.872Z,5.64
2018-11-27T00:19:39.838Z,5.65
2018-11-27T00:20:39.812Z,5.61
2018-11-27T00:21:39.796Z,5.65
2018-11-27T00:22:39.771Z,5.65
2018-11-27T00:23:39.740Z,5.74
2018-11-27T00:24:39.713Z,5.74
2018-11-27T00:25:39.689Z,5.73
2018-11-27T00:26:39.680Z,5.83
2018-11-27T00:27:39.637Z,5.74
2018-11-27T00:28:39.616Z,5.74
2018-11-27T00:29:39.595Z,5.70
2018-11-27T00:30:39.567Z,5.76
2018-11-27T00:31:39.538Z,5.74
2018-11-27T00:32:39.513Z,5.77
2018-11-27T00:33:39.496Z,5.72
2018-11-27T00:34:39.462Z,5.72
2018-11-27T00:35:39.438Z,5.74
2018-11-27T00:36:39.416Z,5.74
2018-11-27T00:37:39.389Z,5.84
2018-11-27T00:38:39.364Z,5.80
2018-11-27T00:39:39.338Z,5.91
2018-11-27T00:40:39.322Z,5.83
2018-11-27T00:41:39.291Z,5.76
2018-11-27T00:42:39.268Z,5.65
2018-11-27T00:43:39.239Z,5.65
2018-11-27T00:44:39.215Z,5.65
2018-11-27T00:45:39.191Z,5.77
2018-11-27T00:46:39.172Z,5.72
2018-11-27T00:47:39.148Z,5.70
2018-11-27T00:48:39.114Z,5.67
2018-11-27T00:49:39.097Z,5.72
2018-11-27T00:50:39.165Z,5.74
2018-11-27T00:51:39.057Z,5.77
2018-11-27T00:52:39.013Z,5.80
2018-11-27T00:53:38.993Z,5.83
2018-11-27T00:54:38.963Z,5.80
2018-11-27T00:55:38.943Z,5.81
2018-11-27T00:56:38.914Z,5.77
2018-11-27T00:57:38.890Z,5.74
2018-11-27T00:58:38.865Z,5.77
2018-11-27T00:59:38.848Z,5.76
2018-11-27T01:00:38.815Z,5.70
2018-11-27T01:01:38.802Z,5.62
2018-11-27T01:02:38.764Z,5.65
2018-11-27T01:03:38.744Z,5.64
2018-11-27T01:04:38.715Z,5.59
2018-11-27T01:05:38.692Z,5.62
2018-11-27T01:06:38.665Z,5.72
2018-11-27T01:07:38.641Z,5.73
2018-11-27T01:08:38.615Z,5.67
2018-11-27T01:09:38.591Z,5.74
2018-11-27T01:10:38.565Z,5.74
2018-11-27T01:11:38.540Z,5.76
2018-11-27T01:12:38.518Z,5.74
2018-11-27T01:13:38.489Z,5.74
2018-11-27T01:14:38.465Z,5.74
2018-11-27T01:15:38.490Z,5.72
2018-11-27T01:16:38.431Z,5.69
2018-11-27T01:17:38.401Z,5.65
2018-11-27T01:18:38.373Z,5.65
2018-11-27T01:19:38.344Z,5.58
2018-11-27T01:20:38.315Z,5.58
2018-11-27T01:21:38.290Z,5.61
2018-11-27T01:22:38.264Z,5.67
2018-11-27T01:23:38.240Z,5.65
2018-11-27T01:24:38.222Z,5.67
2018-11-27T01:25:38.190Z,5.72
2018-11-27T01:26:38.165Z,5.74
2018-11-27T01:27:38.156Z,5.76
2018-11-27T01:28:38.116Z,5.76
2018-11-27T01:29:38.098Z,5.72
2018-11-27T01:30:38.074Z,5.74
2018-11-27T01:31:38.041Z,5.76
2018-11-27T01:32:38.020Z,5.73
2018-11-27T01:33:37.991Z,5.73
2018-11-27T01:34:37.976Z,5.74
2018-11-27T01:35:37.953Z,5.73
2018-11-27T01:36:37.918Z,5.77
2018-11-27T01:37:37.890Z,5.73
2018-11-27T01:38:37.866Z,5.62
2018-11-27T01:39:37.850Z,5.72
2018-11-27T01:40:37.820Z,5.64
2018-11-27T01:41:37.792Z,5.74
2018-11-27T01:42:37.764Z,5.61
2018-11-27T01:43:37.742Z,5.67
2018-11-27T01:44:37.717Z,5.69
2018-11-27T01:45:37.709Z,5.61
2018-11-27T01:46:37.669Z,5.59
2018-11-27T01:47:37.643Z,5.59
2018-11-27T01:48:37.615Z,5.79
2018-11-27T01:49:37.594Z,5.70
2018-11-27T01:50:37.566Z,5.74
2018-11-27T01:51:37.542Z,5.70
2018-11-27T01:52:37.517Z,5.79
2018-11-27T01:53:37.492Z,5.70
2018-11-27T01:54:37.469Z,5.73
2018-11-27T01:55:37.441Z,5.79
2018-11-27T01:56:37.417Z,5.79
2018-11-27T01:57:37.395Z,5.77
2018-11-27T01:58:37.370Z,5.67
2018-11-27T01:59:37.343Z,5.67
2018-11-27T02:00:37.319Z,5.64
2018-11-27T02:01:37.292Z,5.72
2018-11-27T02:02:37.275Z,5.74
2018-11-27T02:03:37.242Z,5.73
2018-11-27T02:04:37.219Z,5.73
2018-11-27T02:05:37.198Z,5.76
2018-11-27T02:06:37.167Z,5.79
2018-11-27T02:07:37.141Z,5.79
2018-11-27T02:08:37.117Z,5.83
2018-11-27T02:09:37.093Z,5.81
2018-11-27T02:10:37.074Z,5.80
2018-11-27T02:11:37.045Z,5.83
2018-11-27T02:12:37.023Z,5.79
2018-11-27T02:13:36.992Z,5.91
2018-11-27T02:14:36.967Z,5.90
2018-11-27T02:15:36.945Z,5.79
2018-11-27T02:16:36.919Z,5.83
2018-11-27T02:17:36.894Z,5.87
2018-11-27T02:18:36.877Z,5.87
2018-11-27T02:19:36.843Z,5.80
2018-11-27T02:20:36.820Z,5.83
2018-11-27T02:21:36.795Z,5.72
2018-11-27T02:22:36.770Z,5.79
2018-11-27T02:23:36.744Z,5.79
2018-11-27T02:24:36.718Z,5.72
2018-11-27T02:25:36.695Z,5.87
2018-11-27T02:26:36.670Z,5.80
2018-11-27T02:27:36.653Z,5.77
2018-11-27T02:28:36.618Z,5.72
2018-11-27T02:29:36.595Z,5.72
2018-11-27T02:30:36.570Z,5.79
2018-11-27T02:31:36.543Z,5.74
2018-11-27T02:32:36.520Z,5.69
2018-11-27T02:33:36.500Z,5.67
2018-11-27T02:34:36.477Z,5.72
2018-11-27T02:35:36.445Z,5.65
2018-11-27T02:36:36.420Z,5.70
2018-11-27T02:37:36.395Z,5.72
2018-11-27T02:38:36.369Z,5.74
2018-11-27T02:39:36.346Z,5.70
2018-11-27T02:40:36.320Z,5.73
2018-11-27T02:41:36.294Z,5.74
2018-11-27T02:42:36.270Z,5.61
2018-11-27T02:43:36.246Z,5.74
2018-11-27T02:44:36.221Z,5.79
2018-11-27T02:45:36.197Z,5.74
2018-11-27T02:46:36.172Z,5.79
2018-11-27T02:47:36.146Z,5.69
2018-11-27T02:48:36.120Z,5.76
2018-11-27T02:49:36.102Z,5.74
2018-11-27T02:50:36.073Z,5.64
2018-11-27T02:51:36.045Z,5.64
2018-11-27T02:52:36.031Z,5.62
2018-11-27T02:53:36.004Z,5.69
2018-11-27T02:54:35.970Z,5.65
2018-11-27T02:55:35.947Z,5.61
2018-11-27T02:56:35.921Z,5.58
2018-11-27T02:57:35.897Z,5.62
2018-11-27T02:58:35.870Z,5.69
2018-11-27T02:59:35.846Z,5.74
2018-11-27T03:00:35.820Z,5.74
2018-11-27T03:01:35.797Z,5.77
2018-11-27T03:02:35.770Z,5.69
2018-11-27T03:03:35.746Z,5.69
2018-11-27T03:04:35.723Z,5.73
2018-11-27T03:05:35.697Z,5.72
2018-11-27T03:06:35.671Z,5.74
2018-11-27T03:07:35.648Z,5.70
2018-11-27T03:08:35.623Z,5.64
2018-11-27T03:09:35.597Z,5.47
2018-11-27T03:10:35.584Z,5.56
2018-11-27T03:11:35.549Z,5.54
2018-11-27T03:12:35.522Z,5.56
2018-11-27T03:13:35.501Z,5.52
2018-11-27T03:14:35.474Z,5.52
2018-11-27T03:15:35.447Z,5.55
2018-11-27T03:16:35.432Z,5.61
2018-11-27T03:17:35.398Z,5.55
2018-11-27T03:18:35.372Z,5.62
2018-11-27T03:19:35.355Z,5.65
2018-11-27T03:20:35.323Z,5.61
2018-11-27T03:21:35.296Z,5.64
2018-11-27T03:22:35.271Z,5.54
2018-11-27T03:23:35.247Z,5.54
2018-11-27T03:24:35.225Z,5.51
2018-11-27T03:25:35.198Z,5.61
2018-11-27T03:26:35.173Z,5.64
2018-11-27T03:27:35.147Z,5.65
2018-11-27T03:28:35.224Z,5.64
2018-11-27T03:29:35.098Z,5.65
2018-11-27T03:30:35.075Z,5.56
2018-11-27T03:31:35.048Z,5.55
2018-11-27T03:32:35.023Z,5.52
2018-11-27T03:33:34.998Z,5.55
2018-11-27T03:34:34.972Z,5.58
2018-11-27T03:35:34.947Z,5.56
2018-11-27T03:36:34.924Z,5.56
2018-11-27T03:37:34.899Z,5.64
2018-11-27T03:38:34.871Z,5.67
2018-11-27T03:39:34.849Z,5.76
2018-11-27T03:40:34.822Z,5.76
2018-11-27T03:41:34.798Z,5.65
2018-11-27T03:42:34.772Z,5.67
2018-11-27T03:43:34.746Z,5.70
2018-11-27T03:44:34.722Z,5.65
2018-11-27T03:45:34.697Z,5.64
2018-11-27T03:46:34.671Z,5.59
2018-11-27T03:47:34.646Z,5.62
2018-11-27T03:48:34.621Z,5.72
2018-11-27T03:49:34.596Z,5.55
2018-11-27T03:50:34.571Z,5.49
2018-11-27T03:51:34.546Z,5.58
2018-11-27T03:52:34.527Z,5.52
2018-11-27T03:53:34.498Z,5.51
2018-11-27T03:54:34.473Z,5.52
2018-11-27T03:55:34.459Z,5.58
2018-11-27T03:56:34.421Z,5.64
2018-11-27T03:57:34.395Z,5.56
2018-11-27T03:58:34.370Z,5.69
2018-11-27T03:59:34.357Z,5.81
2018-11-27T04:00:34.323Z,5.72
2018-11-27T04:01:34.297Z,5.74
2018-11-27T04:02:34.271Z,5.72
2018-11-27T04:03:34.247Z,5.72
2018-11-27T04:04:34.277Z,5.76
2018-11-27T04:05:34.197Z,5.72
2018-11-27T04:06:34.171Z,5.64
2018-11-27T04:07:34.144Z,5.73
2018-11-27T04:08:34.127Z,5.79
2018-11-27T04:09:34.100Z,5.79
2018-11-27T04:10:34.072Z,5.76
2018-11-27T04:11:34.047Z,5.77
2018-11-27T04:12:34.020Z,5.76
2018-11-27T04:13:34.021Z,5.65
2018-11-27T04:14:33.978Z,5.69
2018-11-27T04:15:33.946Z,5.73
2018-11-27T04:16:33.920Z,5.70
2018-11-27T04:17:33.897Z,5.70
2018-11-27T04:18:33.875Z,5.70
2018-11-27T04:19:33.862Z,5.65
2018-11-27T04:20:33.824Z,5.64
2018-11-27T04:21:33.796Z,5.72
2018-11-27T04:22:33.774Z,5.77
2018-11-27T04:23:33.747Z,5.64
2018-11-27T04:24:33.725Z,5.73
2018-11-27T04:25:33.698Z,5.72
2018-11-27T04:26:33.670Z,5.62
2018-11-27T04:27:33.645Z,5.73
2018-11-27T04:28:33.620Z,5.70
2018-11-27T04:29:33.599Z,5.76
2018-11-27T04:30:33.571Z,5.72
2018-11-27T04:31:33.545Z,5.83
2018-11-27T04:32:33.521Z,5.74
2018-11-27T04:33:33.498Z,5.76
2018-11-27T04:34:33.472Z,5.77
2018-11-27T04:35:33.446Z,5.76
2018-11-27T04:36:33.421Z,5.65
2018-11-27T04:37:33.396Z,5.74
2018-11-27T04:38:33.373Z,5.62
2018-11-27T04:39:33.348Z,5.77
2018-11-27T04:40:33.322Z,5.76
2018-11-27T04:41:33.305Z,5.77
2018-11-27T04:42:33.272Z,5.72
2018-11-27T04:43:33.247Z,5.70
2018-11-27T04:44:33.227Z,5.79
2018-11-27T04:45:33.198Z,5.76
2018-11-27T04:46:33.272Z,5.83
2018-11-27T04:47:33.147Z,5.87
2018-11-27T04:48:33.121Z,5.81
2018-11-27T04:49:33.099Z,5.77
2018-11-27T04:50:33.079Z,5.79
2018-11-27T04:51:33.048Z,5.73
2018-11-27T04:52:33.026Z,5.76
2018-11-27T04:53:32.997Z,5.76
2018-11-27T04:54:32.971Z,5.74
2018-11-27T04:55:32.947Z,5.62
2018-11-27T04:56:32.925Z,5.70
2018-11-27T04:57:32.897Z,5.64
2018-11-27T04:58:32.882Z,5.74
2018-11-27T04:59:32.848Z,5.77
2018-11-27T05:00:32.823Z,5.74
2018-11-27T05:01:32.796Z,5.74
2018-11-27T05:02:32.773Z,5.73
2018-11-27T05:03:32.748Z,5.76
2018-11-27T05:04:32.721Z,5.80
2018-11-27T05:05:32.712Z,5.83
2018-11-27T05:06:32.672Z,5.81
2018-11-27T05:07:32.648Z,5.76
2018-11-27T05:08:32.624Z,5.79
2018-11-27T05:09:32.612Z,5.79
2018-11-27T05:10:32.571Z,5.76
2018-11-27T05:11:32.550Z,5.72
2018-11-27T05:12:32.522Z,5.76
2018-11-27T05:13:32.500Z,5.81
2018-11-27T05:14:32.479Z,5.79
2018-11-27T05:15:32.447Z,5.80
2018-11-27T05:16:32.422Z,5.81
2018-11-27T05:17:32.397Z,5.81
2018-11-27T05:18:32.372Z,5.77
2018-11-27T05:19:32.348Z,5.81
2018-11-27T05:20:32.365Z,5.80
2018-11-27T05:21:32.303Z,5.83
2018-11-27T05:22:32.273Z,5.81
2018-11-27T05:23:32.249Z,5.83
2018-11-27T05:24:32.224Z,5.83
2018-11-27T05:25:32.200Z,5.84
2018-11-27T05:26:32.172Z,5.79
2018-11-27T05:27:32.148Z,5.81
2018-11-27T05:28:32.124Z,5.84
2018-11-27T05:29:32.099Z,5.84
2018-11-27T05:30:32.073Z,5.83
2018-11-27T05:31:32.051Z,5.88
2018-11-27T05:32:32.024Z,5.91
2018-11-27T05:33:32.008Z,5.87
2018-11-27T05:34:31.974Z,5.95
2018-11-27T05:35:31.950Z,5.95
2018-11-27T05:36:31.924Z,5.99
2018-11-27T05:37:31.906Z,6.01
2018-11-27T05:38:31.942Z,5.99
2018-11-27T05:39:31.865Z,5.97
2018-11-27T05:40:31.826Z,5.97
2018-11-27T05:41:31.807Z,5.99
2018-11-27T05:42:31.774Z,5.95
2018-11-27T05:43:31.758Z,5.92
2018-11-27T05:44:31.724Z,5.83
2018-11-27T05:45:31.702Z,5.95
2018-11-27T05:46:31.675Z,5.88
2018-11-27T05:47:31.652Z,5.95
2018-11-27T05:48:31.628Z,5.97
2018-11-27T05:49:31.601Z,5.91
2018-11-27T05:50:31.576Z,5.92
2018-11-27T05:51:31.549Z,5.92
2018-11-27T05:52:31.524Z,5.94
2018-11-27T05:53:31.501Z,5.87
2018-11-27T05:54:31.476Z,5.91
2018-11-27T05:55:31.459Z,5.90
2018-11-27T05:56:31.425Z,5.94
2018-11-27T05:57:31.400Z,5.90
2018-11-27T05:58:31.384Z,5.94
2018-11-27T05:59:31.355Z,5.92
2018-11-27T06:00:31.326Z,5.88
2018-11-27T06:01:31.300Z,5.88
2018-11-27T06:02:31.284Z,5.79
2018-11-27T06:03:31.253Z,5.80
2018-11-27T06:04:31.234Z,5.79
2018-11-27T06:05:31.207Z,5.80
2018-11-27T06:06:31.177Z,5.84
2018-11-27T06:07:31.152Z,5.90
2018-11-27T06:08:31.129Z,5.76
2018-11-27T06:09:31.103Z,5.59
2018-11-27T06:10:31.091Z,5.55
2018-11-27T06:11:31.057Z,5.58
2018-11-27T06:12:31.025Z,5.58
2018-11-27T06:13:31.002Z,5.55
2018-11-27T06:14:30.977Z,5.52
2018-11-27T06:15:30.959Z,5.52
2018-11-27T06:16:30.930Z,5.54
2018-11-27T06:17:30.909Z,5.47
2018-11-27T06:18:30.879Z,5.41
2018-11-27T06:19:30.856Z,5.40
2018-11-27T06:20:30.827Z,5.40
2018-11-27T06:21:30.805Z,5.52
2018-11-27T06:22:30.786Z,5.44
2018-11-27T06:23:30.756Z,5.51
2018-11-27T06:24:30.731Z,5.51
2018-11-27T06:25:30.701Z,5.54
2018-11-27T06:26:30.678Z,5.52
2018-11-27T06:27:30.650Z,5.49
2018-11-27T06:28:30.629Z,5.52
2018-11-27T06:29:30.610Z,5.58
2018-11-27T06:30:30.576Z,5.61
2018-11-27T06:31:30.558Z,5.67
2018-11-27T06:32:30.526Z,5.69
2018-11-27T06:33:30.499Z,5.69
2018-11-27T06:34:30.478Z,5.72
2018-11-27T06:35:30.448Z,5.77
2018-11-27T06:36:30.426Z,5.65
2018-11-27T06:37:30.500Z,5.67
2018-11-27T06:38:30.375Z,5.54
2018-11-27T06:39:30.350Z,5.67
2018-11-27T06:40:30.326Z,5.73
2018-11-27T06:41:30.301Z,5.69
2018-11-27T06:42:30.273Z,5.69
2018-11-27T06:43:30.252Z,5.56
2018-11-27T06:44:30.224Z,5.49
2018-11-27T06:45:30.199Z,5.54
2018-11-27T06:46:30.173Z,5.52
2018-11-27T06:47:30.150Z,5.56
2018-11-27T06:48:30.125Z,5.64
2018-11-27T06:49:30.101Z,5.65
2018-11-27T06:50:30.079Z,5.62
2018-11-27T06:51:30.057Z,5.74
2018-11-27T06:52:30.023Z,5.77
2018-11-27T06:53:29.999Z,5.83
2018-11-27T06:54:29.981Z,5.80
2018-11-27T06:55:29.947Z,5.81
2018-11-27T06:56:29.924Z,5.90
2018-11-27T06:57:29.899Z,5.90
2018-11-27T06:58:29.871Z,5.92
2018-11-27T06:59:29.847Z,5.92
2018-11-27T07:00:29.822Z,5.84
2018-11-27T07:01:29.807Z,6.01
2018-11-27T07:02:29.773Z,5.91
2018-11-27T07:03:29.746Z,6.05
2018-11-27T07:04:29.722Z,5.91
2018-11-27T07:05:29.724Z,5.79
2018-11-27T07:06:29.677Z,5.79
2018-11-27T07:07:29.649Z,5.84
2018-11-27T07:08:29.635Z,5.97
2018-11-27T07:09:29.605Z,5.95
2018-11-27T07:10:29.571Z,5.92
2018-11-27T07:11:29.547Z,5.94
2018-11-27T07:12:29.540Z,5.90
2018-11-27T07:13:29.502Z,5.84
2018-11-27T07:14:29.473Z,5.88
2018-11-27T07:15:29.455Z,5.81
2018-11-27T07:16:29.431Z,5.87
2018-11-27T07:17:29.397Z,5.91
2018-11-27T07:18:29.382Z,5.88
2018-11-27T07:19:29.347Z,5.83
2018-11-27T07:20:29.322Z,5.87
2018-11-27T07:21:29.310Z,5.79
2018-11-27T07:22:29.271Z,5.94
2018-11-27T07:23:29.247Z,5.92
2018-11-27T07:24:29.233Z,5.97
2018-11-27T07:25:29.198Z,5.99
2018-11-27T07:26:29.176Z,5.90
2018-11-27T07:27:29.148Z,5.90
2018-11-27T07:28:29.124Z,5.83
2018-11-27T07:29:29.099Z,5.76
2018-11-27T07:30:29.086Z,5.80
2018-11-27T07:31:29.047Z,5.83
2018-11-27T07:32:29.023Z,5.83
2018-11-27T07:33:29.007Z,5.81
2018-11-27T07:34:28.989Z,5.84
2018-11-27T07:35:28.948Z,5.88
2018-11-27T07:36:28.933Z,5.91
2018-11-27T07:37:28.924Z,5.90
2018-11-27T07:38:28.974Z,5.92
2018-11-27T07:39:28.850Z,6.01
2018-11-27T07:40:28.826Z,6.01
2018-11-27T07:41:28.807Z,6.01
2018-11-27T07:42:28.774Z,5.99
2018-11-27T07:43:28.750Z,6.02
2018-11-27T07:44:28.724Z,5.92
2018-11-27T07:45:28.708Z,5.92
2018-11-27T07:46:28.677Z,6.16
2018-11-27T07:47:28.650Z,6.09
2018-11-27T07:48:28.627Z,6.15
2018-11-27T07:49:28.600Z,6.07
2018-11-27T07:50:28.583Z,6.12
2018-11-27T07:51:28.552Z,6.13
2018-11-27T07:52:28.529Z,6.02
2018-11-27T07:53:28.502Z,6.01
2018-11-27T07:54:28.484Z,6.09
2018-11-27T07:55:28.451Z,6.07
2018-11-27T07:56:28.427Z,5.95
2018-11-27T07:57:28.412Z,6.07
2018-11-27T07:58:28.381Z,6.07
2018-11-27T07:59:28.355Z,6.10
2018-11-27T08:00:28.327Z,6.06
2018-11-27T08:01:28.302Z,6.07
2018-11-27T08:02:28.279Z,6.15
2018-11-27T08:03:28.464Z,6.07
2018-11-27T08:04:28.228Z,6.13
2018-11-27T08:05:28.205Z,6.22
2018-11-27T08:06:28.180Z,6.25
2018-11-27T08:07:28.154Z,6.26
2018-11-27T08:08:28.130Z,6.16
2018-11-27T08:09:28.112Z,6.26
2018-11-27T08:10:28.086Z,6.17
2018-11-27T08:11:28.069Z,6.13
2018-11-27T08:12:28.040Z,6.12
2018-11-27T08:13:28.008Z,6.09
2018-11-27T08:14:27.981Z,6.15
2018-11-27T08:15:27.956Z,6.16
2018-11-27T08:16:27.950Z,6.12
2018-11-27T08:17:27.913Z,6.19
2018-11-27T08:18:27.893Z,6.16
2018-11-27T08:19:27.859Z,6.07
2018-11-27T08:20:27.838Z,6.19
2018-11-27T08:21:27.809Z,6.17
2018-11-27T08:22:27.785Z,6.16
2018-11-27T08:23:27.772Z,6.16
2018-11-27T08:24:27.745Z,6.22
2018-11-27T08:25:27.713Z,6.28
2018-11-27T08:26:27.685Z,6.16
2018-11-27T08:27:27.670Z,6.17
2018-11-27T08:28:27.637Z,6.32
2018-11-27T08:29:27.616Z,6.29
2018-11-27T08:30:27.590Z,6.31
2018-11-27T08:31:27.561Z,6.26
2018-11-27T08:32:27.538Z,6.25
2018-11-27T08:33:27.522Z,6.20
2018-11-27T08:34:27.497Z,6.17
2018-11-27T08:35:27.464Z,6.17
2018-11-27T08:36:27.440Z,6.13
2018-11-27T08:37:27.415Z,6.13
2018-11-27T08:38:27.390Z,6.12
2018-11-27T08:39:27.373Z,6.13
2018-11-27T08:40:27.342Z,6.31
2018-11-27T08:41:27.326Z,6.20
2018-11-27T08:42:27.300Z,6.29
2018-11-27T08:43:27.274Z,6.31
2018-11-27T08:44:27.244Z,6.32
2018-11-27T08:45:27.227Z,6.34
2018-11-27T08:46:27.195Z,6.32
2018-11-27T08:47:27.169Z,6.34
2018-11-27T08:48:27.156Z,6.29
2018-11-27T08:49:27.126Z,6.29
2018-11-27T08:50:27.096Z,6.26
2018-11-27T08:51:27.071Z,6.31
2018-11-27T08:52:27.064Z,6.32
2018-11-27T08:53:27.023Z,6.26
2018-11-27T08:54:26.998Z,6.32
2018-11-27T08:55:26.995Z,6.36
2018-11-27T08:56:26.955Z,6.32
2018-11-27T08:57:26.924Z,6.28
2018-11-27T08:58:26.900Z,6.31
2018-11-27T08:59:26.876Z,6.29
2018-11-27T09:00:26.850Z,6.13
2018-11-27T09:01:26.826Z,6.02
2018-11-27T09:02:26.802Z,6.13
2018-11-27T09:03:26.776Z,5.95
2018-11-27T09:04:26.754Z,6.07
2018-11-27T09:05:26.735Z,5.99
2018-11-27T09:06:26.703Z,6.13
2018-11-27T09:07:26.720Z,6.09
2018-11-27T09:08:26.659Z,6.02
2018-11-27T09:09:26.630Z,6.05
2018-11-27T09:10:26.609Z,6.06
2018-11-27T09:11:26.628Z,6.01
2018-11-27T09:12:26.558Z,5.95
2018-11-27T09:13:26.533Z,6.10
2018-11-27T09:14:26.515Z,5.94
2018-11-27T09:15:26.489Z,5.65
2018-11-27T09:16:26.459Z,5.51
2018-11-27T09:17:26.443Z,5.51
2018-11-27T09:18:26.410Z,5.55
2018-11-27T09:19:26.393Z,5.64
2018-11-27T09:20:26.375Z,5.62
2018-11-27T09:21:26.337Z,5.73
2018-11-27T09:22:26.311Z,5.84
2018-11-27T09:23:26.287Z,5.87
2018-11-27T09:24:26.283Z,5.80
2018-11-27T09:25:26.239Z,5.88
2018-11-27T09:26:26.220Z,5.95
2018-11-27T09:27:26.190Z,6.01
2018-11-27T09:28:26.173Z,6.01
2018-11-27T09:29:26.140Z,6.01
2018-11-27T09:30:26.126Z,6.06
2018-11-27T09:31:26.090Z,6.10
2018-11-27T09:32:26.067Z,6.12
2018-11-27T09:33:26.044Z,6.12
2018-11-27T09:34:26.015Z,6.15
2018-11-27T09:35:25.994Z,6.13
2018-11-27T09:36:25.969Z,6.19
2018-11-27T09:37:25.952Z,6.20
2018-11-27T09:38:25.930Z,6.26
2018-11-27T09:39:25.895Z,6.29
2018-11-27T09:40:25.871Z,6.15
2018-11-27T09:41:25.847Z,6.15
2018-11-27T09:42:25.829Z,6.05
2018-11-27T09:43:25.794Z,6.22
2018-11-27T09:44:25.778Z,6.07
2018-11-27T09:45:25.753Z,6.16
2018-11-27T09:46:25.726Z,6.09
2018-11-27T09:47:25.699Z,6.06
2018-11-27T09:48:25.678Z,6.12
2018-11-27T09:49:25.659Z,6.16
2018-11-27T09:50:25.625Z,6.25
2018-11-27T09:51:25.599Z,6.13
2018-11-27T09:52:25.577Z,6.09
2018-11-27T09:53:25.558Z,5.99
2018-11-27T09:54:25.534Z,6.07
2018-11-27T09:55:25.510Z,5.88
2018-11-27T09:56:25.478Z,5.83
2018-11-27T09:57:25.454Z,5.73
2018-11-27T09:58:25.428Z,5.76
2018-11-27T09:59:25.408Z,5.77
2018-11-27T10:00:25.384Z,5.87
2018-11-27T10:01:25.357Z,6.06
2018-11-27T10:02:25.331Z,6.02
2018-11-27T10:03:25.361Z,6.09
2018-11-27T10:04:25.291Z,6.17
2018-11-27T10:05:25.258Z,6.29
2018-11-27T10:06:25.233Z,6.31
2018-11-27T10:07:25.210Z,6.32
2018-11-27T10:08:25.184Z,6.29
2018-11-27T10:09:25.160Z,6.29
2018-11-27T10:10:25.138Z,6.31
2018-11-27T10:11:25.117Z,6.15
2018-11-27T10:12:25.089Z,5.90
2018-11-27T10:13:25.066Z,5.64
2018-11-27T10:14:25.047Z,5.64
2018-11-27T10:15:25.025Z,5.59
2018-11-27T10:16:24.994Z,5.67
2018-11-27T10:17:24.968Z,5.77
2018-11-27T10:18:24.942Z,5.76
2018-11-27T10:19:27.002Z,5.69
2018-11-27T10:20:24.902Z,5.74
2018-11-27T10:21:24.876Z,5.69
2018-11-27T10:22:24.843Z,5.61
2018-11-27T10:23:24.829Z,5.58
2018-11-27T10:24:24.796Z,5.61
2018-11-27T10:25:24.771Z,5.70
2018-11-27T10:26:24.792Z,5.74
2018-11-27T10:27:24.728Z,5.67
2018-11-27T10:28:24.696Z,5.65
2018-11-27T10:29:24.689Z,5.77
2018-11-27T10:30:24.656Z,5.70
2018-11-27T10:31:24.672Z,5.72
2018-11-27T10:32:24.595Z,5.84
2018-11-27T10:33:24.579Z,5.87
2018-11-27T10:34:24.563Z,5.90
2018-11-27T10:35:24.523Z,5.83
2018-11-27T10:36:24.500Z,5.76
2018-11-27T10:37:24.473Z,5.62
2018-11-27T10:38:24.447Z,5.79
2018-11-27T10:39:24.429Z,5.72
2018-11-27T10:40:24.414Z,5.72
2018-11-27T10:41:24.379Z,5.65
2018-11-27T10:42:29.947Z,5.61
2018-11-27T10:43:24.330Z,5.64
2018-11-27T10:44:24.308Z,5.65
2018-11-27T10:45:24.275Z,5.76
2018-11-27T10:46:24.249Z,5.77
2018-11-27T10:47:24.223Z,5.81
2018-11-27T10:48:24.201Z,5.84
2018-11-27T10:49:24.174Z,5.91
2018-11-27T10:50:24.256Z,6.10
2018-11-27T10:51:24.126Z,6.10
2018-11-27T10:52:24.109Z,6.07
2018-11-27T10:53:24.080Z,6.05
2018-11-27T10:54:24.051Z,6.05
2018-11-27T10:55:24.034Z,6.02
2018-11-27T10:56:24.008Z,5.92
2018-11-27T10:57:23.976Z,5.81
2018-11-27T10:58:23.954Z,5.79
2018-11-27T10:59:23.928Z,5.74
2018-11-27T11:00:23.903Z,5.76
2018-11-27T11:01:23.880Z,5.73
2018-11-27T11:02:23.855Z,5.73
2018-11-27T11:03:23.831Z,5.76
2018-11-27T11:04:23.812Z,5.74
2018-11-27T11:05:23.784Z,5.72
2018-11-27T11:06:23.757Z,5.64
2018-11-27T11:07:23.746Z,5.70
2018-11-27T11:08:23.719Z,5.73
2018-11-27T11:09:23.683Z,5.73
2018-11-27T11:10:23.659Z,5.81
2018-11-27T11:11:23.632Z,5.83
2018-11-27T11:12:23.609Z,5.74
2018-11-27T11:13:23.584Z,5.73
2018-11-27T11:14:23.555Z,5.83
2018-11-27T11:15:23.533Z,5.92
2018-11-27T11:16:23.507Z,5.97
2018-11-27T11:17:23.487Z,6.05
2018-11-27T11:18:23.458Z,6.06
2018-11-27T11:19:23.439Z,6.10
2018-11-27T11:20:23.408Z,6.12
2018-11-27T11:21:23.384Z,5.97
2018-11-27T11:22:23.357Z,5.90
2018-11-27T11:23:23.334Z,5.87
2018-11-27T11:24:23.318Z,5.81
2018-11-27T11:25:23.284Z,5.79
2018-11-27T11:26:23.259Z,5.84
2018-11-27T11:27:23.246Z,5.91
2018-11-27T11:28:23.210Z,6.06
2018-11-27T11:29:23.187Z,6.02
2018-11-27T11:30:23.162Z,6.10
2018-11-27T11:31:23.136Z,6.01
2018-11-27T11:32:23.118Z,6.09
2018-11-27T11:33:23.086Z,6.26
2018-11-27T11:34:23.068Z,6.32
2018-11-27T11:35:23.049Z,6.35
2018-11-27T11:36:23.021Z,6.39
2018-11-27T11:37:22.987Z,6.49
2018-11-27T11:38:22.964Z,6.54
2018-11-27T11:39:22.938Z,6.46
2018-11-27T11:40:22.916Z,6.29
2018-11-27T11:41:22.893Z,6.17
2018-11-27T11:42:22.865Z,6.28
2018-11-27T11:43:22.841Z,6.28
2018-11-27T11:44:22.825Z,6.28
2018-11-27T11:45:22.809Z,6.28
2018-11-27T11:46:22.769Z,6.34
2018-11-27T11:47:22.753Z,6.32
2018-11-27T11:48:22.719Z,6.35
2018-11-27T11:49:22.697Z,6.31
2018-11-27T11:50:22.672Z,6.31
2018-11-27T11:51:22.648Z,6.29
2018-11-27T11:52:22.632Z,6.20
2018-11-27T11:53:22.597Z,6.28
2018-11-27T11:54:22.578Z,6.38
2018-11-27T11:55:22.558Z,6.46
2018-11-27T11:56:22.526Z,6.49
2018-11-27T11:57:22.517Z,6.52
2018-11-27T11:58:22.493Z,6.57
2018-11-27T11:59:22.462Z,6.54
2018-11-27T12:00:22.430Z,6.54
2018-11-27T12:01:22.420Z,6.56
2018-11-27T12:02:22.380Z,6.62
2018-11-27T12:03:22.356Z,6.59
2018-11-27T12:04:22.340Z,6.62
2018-11-27T12:05:25.011Z,6.67
2018-11-27T12:06:22.287Z,6.65
2018-11-27T12:07:22.261Z,6.71
2018-11-27T12:08:22.236Z,6.70
2018-11-27T12:09:22.232Z,6.71
2018-11-27T12:10:22.188Z,6.68
2018-11-27T12:11:22.162Z,6.67
2018-11-27T12:12:22.193Z,6.70
2018-11-27T12:13:22.125Z,6.72
2018-11-27T12:14:22.117Z,6.68
2018-11-27T12:15:22.067Z,6.64
2018-11-27T12:16:22.053Z,6.65
2018-11-27T12:17:22.030Z,6.57
2018-11-27T12:18:22.000Z,6.41
2018-11-27T12:19:21.978Z,6.47
2018-11-27T12:20:21.950Z,6.46
2018-11-27T12:21:21.924Z,6.38
2018-11-27T12:22:21.902Z,6.46
2018-11-27T12:23:21.882Z,6.49
2018-11-27T12:24:21.857Z,6.56
2018-11-27T12:25:24.210Z,6.49
2018-11-27T12:26:21.810Z,6.47
2018-11-27T12:27:21.781Z,6.54
2018-11-27T12:28:21.755Z,6.50
2018-11-27T12:29:21.732Z,6.50
2018-11-27T12:30:21.709Z,6.49
2018-11-27T12:31:21.683Z,6.52
2018-11-27T12:32:21.661Z,6.39
2018-11-27T12:33:21.650Z,6.32
2018-11-27T12:34:21.619Z,6.25
2018-11-27T12:35:21.587Z,6.31
2018-11-27T12:36:21.565Z,6.32
2018-11-27T12:37:21.542Z,6.38
2018-11-27T12:38:21.517Z,6.28
2018-11-27T12:39:21.491Z,6.26
2018-11-27T12:40:21.481Z,6.26
2018-11-27T12:41:21.547Z,6.17
2018-11-27T12:42:21.421Z,6.13
2018-11-27T12:43:21.403Z,6.19
2018-11-27T12:44:21.370Z,6.29
2018-11-27T12:45:21.347Z,6.29
2018-11-27T12:46:21.327Z,6.28
2018-11-27T12:47:21.304Z,6.15
2018-11-27T12:48:21.273Z,6.19
2018-11-27T12:49:21.256Z,6.20
2018-11-27T12:50:21.224Z,6.31
2018-11-27T12:51:21.200Z,6.29
2018-11-27T12:52:21.174Z,6.25
2018-11-27T12:53:21.158Z,6.06
2018-11-27T12:54:21.126Z,6.09
2018-11-27T12:55:21.109Z,5.94
2018-11-27T12:56:21.078Z,6.06
2018-11-27T12:57:21.060Z,6.05
2018-11-27T12:58:21.031Z,6.09
2018-11-27T12:59:21.005Z,6.07
2018-11-27T13:00:20.980Z,6.20
2018-11-27T13:01:20.955Z,6.15
2018-11-27T13:02:20.930Z,6.29
2018-11-27T13:03:20.905Z,6.29
2018-11-27T13:04:20.882Z,6.28
2018-11-27T13:05:20.858Z,6.32
2018-11-27T13:06:20.838Z,6.32
2018-11-27T13:07:20.823Z,6.28
2018-11-27T13:08:20.811Z,6.32
2018-11-27T13:09:20.765Z,6.39
2018-11-27T13:10:20.739Z,6.29
2018-11-27T13:11:20.713Z,6.29
2018-11-27T13:12:20.687Z,6.32
2018-11-27T13:13:20.660Z,6.31
2018-11-27T13:14:20.691Z,6.39
2018-11-27T13:15:20.609Z,6.29
2018-11-27T13:16:20.593Z,6.28
2018-11-27T13:17:20.592Z,6.29
2018-11-27T13:18:20.543Z,6.29